Terminal Aerodrome Forecast
Issued by NWS Louisville, KY

Home | Current Version | Previous Version | Text Only | Print | Product List | Glossary On
Versions: 1 2 3 4 5 6 7 8 9 10 11 12 13 14 15 16 17 18 19
000
FTUS43 KLMK 230500
TAFSDF
TAF
KSDF 230520Z 2306/2412 VRB03KT P6SM FEW045 BKN250
      TEMPO 2309/2313 5SM BR
     FM231800 VRB04KT P6SM SCT040 PROB30 2318/2324 -TSRA BKN035CB
     FM240000 VRB03KT P6SM FEW050 SCT150=

USA.gov is the U.S. government's official web portal to all federal, state and local government web resources and services.